Time;durP1;ratioP1;P1;durP2;ratioP2;P2;SDS_P1;SDS_P2;PMS_P1;PMS_P2;Temp;Humidity;BMP_temperature;BMP_pressure;BME280_temperature;BME280_humidity;BME280_pressure;Samples;Min_cycle;Max_cycle;Signal;HPM_P1;HPM_P2
2021/04/12 00:01:56;;;;;;;4.20;3.13;;;3.80;99.90;;;;;;4994982;28;20518;-73
2021/04/12 00:04:29;;;;;;;8.13;3.13;;;3.90;99.90;;;;;;4995082;28;20406;-73
2021/04/12 00:07:10;;;;;;;3.50;2.63;;;3.90;99.90;;;;;;4995334;28;20992;-72
2021/04/12 00:09:45;;;;;;;6.97;3.40;;;3.90;99.90;;;;;;4994877;28;20836;-73
2021/04/12 00:12:27;;;;;;;4.07;3.27;;;3.90;99.90;;;;;;5013894;28;20444;-72
2021/04/12 00:15:03;;;;;;;4.40;3.60;;;3.80;99.90;;;;;;5014666;28;20535;-74
2021/04/12 00:17:57;;;;;;;3.80;3.20;;;3.80;99.90;;;;;;5014746;28;20433;-72
2021/04/12 00:20:38;;;;;;;4.03;2.80;;;3.80;99.90;;;;;;5014715;28;20418;-74
2021/04/12 00:23:16;;;;;;;4.20;3.00;;;3.70;99.90;;;;;;5014304;28;20782;-73
2021/04/12 00:25:53;;;;;;;3.90;2.80;;;3.70;99.90;;;;;;5014363;28;20430;-73
2021/04/12 00:28:37;;;;;;;4.10;2.80;;;3.70;99.90;;;;;;5014209;28;20490;-72
2021/04/12 00:31:19;;;;;;;4.37;3.00;;;3.70;99.90;;;;;;5013976;28;20441;-72
2021/04/12 00:33:54;;;;;;;5.27;3.30;;;3.60;99.90;;;;;;5014554;28;20398;-73
2021/04/12 00:36:53;;;;;;;5.03;2.90;;;3.60;99.90;;;;;;5014284;28;20496;-73
2021/04/12 00:39:31;;;;;;;3.50;2.90;;;3.60;99.90;;;;;;5014193;28;20418;-71
2021/04/12 00:42:26;;;;;;;6.03;3.40;;;3.60;99.90;;;;;;5013874;28;20501;-75
2021/04/12 00:45:09;;;;;;;5.17;3.33;;;3.60;99.90;;;;;;5014318;28;20751;-73
2021/04/12 00:48:05;;;;;;;2.90;2.70;;;3.70;99.90;;;;;;5013963;28;20517;-74
2021/04/12 00:50:56;;;;;;;2.70;2.50;;;3.70;99.90;;;;;;5014363;28;20469;-74
2021/04/12 00:53:41;;;;;;;6.00;3.03;;;3.70;99.90;;;;;;5013934;28;20421;-73
2021/04/12 00:56:33;;;;;;;6.50;3.00;;;3.70;99.90;;;;;;5013814;28;20418;-73
2021/04/12 00:59:04;;;;;;;6.30;3.10;;;3.70;99.90;;;;;;5013086;28;20434;-73
2021/04/12 01:01:40;;;;;;;4.47;3.40;;;3.70;99.90;;;;;;5013724;28;20485;-71
2021/04/12 01:04:37;;;;;;;4.93;3.37;;;3.70;99.90;;;;;;5012674;28;20427;-74
2021/04/12 01:07:35;;;;;;;3.60;3.00;;;3.70;99.90;;;;;;5014198;28;20552;-72
2021/04/12 01:10:09;;;;;;;5.37;3.40;;;3.70;99.90;;;;;;5014858;28;20414;-74
2021/04/12 01:12:54;;;;;;;3.80;3.07;;;3.70;99.90;;;;;;5015719;28;20570;-73
2021/04/12 01:15:33;;;;;;;4.10;3.30;;;3.70;99.90;;;;;;5018179;28;20563;-73
2021/04/12 01:18:07;;;;;;;3.47;2.80;;;3.60;99.90;;;;;;5032582;28;20423;-74
2021/04/12 01:20:55;;;;;;;7.73;2.87;;;3.70;99.90;;;;;;5031018;28;20925;-74
2021/04/12 01:23:59;;;;;;;3.50;3.20;;;3.70;99.90;;;;;;5019888;28;20442;-73
2021/04/12 01:26:34;;;;;;;5.50;3.20;;;3.70;99.90;;;;;;5014000;28;20437;-74
2021/04/12 01:29:22;;;;;;;5.00;3.70;;;3.80;99.90;;;;;;5013438;28;20413;-75
2021/04/12 01:32:21;;;;;;;4.10;3.73;;;3.90;99.90;;;;;;5013653;28;20472;-73
2021/04/12 01:35:08;;;;;;;6.67;3.57;;;4.00;99.90;;;;;;5012405;28;20433;-73
2021/04/12 01:37:57;;;;;;;6.43;4.23;;;3.90;99.90;;;;;;5013224;28;20444;-74
2021/04/12 01:40:33;;;;;;;5.43;3.37;;;3.90;99.90;;;;;;5013312;28;20469;-73
2021/04/12 01:43:22;;;;;;;3.50;3.00;;;3.80;99.90;;;;;;5012916;28;20425;-73
2021/04/12 01:46:12;;;;;;;3.50;3.20;;;3.90;99.90;;;;;;5013406;28;20440;-74
2021/04/12 01:49:02;;;;;;;6.57;3.90;;;3.90;99.90;;;;;;5013496;28;20863;-73
2021/04/12 01:52:06;;;;;;;5.37;4.00;;;4.00;99.90;;;;;;5013852;28;20421;-73
2021/04/12 01:54:44;;;;;;;4.17;3.77;;;4.10;99.90;;;;;;5013480;28;20410;-73
2021/04/12 01:57:32;;;;;;;7.30;3.80;;;4.10;99.90;;;;;;5013079;28;20544;-73
2021/04/12 02:00:32;;;;;;;5.90;4.47;;;4.10;99.90;;;;;;5012979;28;20997;-73
2021/04/12 02:03:01;;;;;;;5.23;4.53;;;4.10;99.90;;;;;;5012946;28;20418;-72
2021/04/12 02:05:48;;;;;;;7.60;4.70;;;4.00;99.90;;;;;;5013454;28;20939;-72
2021/04/12 02:08:33;;;;;;;5.10;4.60;;;4.00;99.90;;;;;;5011907;28;21033;-72
2021/04/12 02:11:14;;;;;;;6.63;4.67;;;4.10;99.90;;;;;;5013460;28;20395;-72
2021/04/12 02:13:58;;;;;;;5.83;4.23;;;4.10;99.90;;;;;;5013321;28;20486;-73
2021/04/12 02:16:45;;;;;;;6.53;5.03;;;4.20;99.90;;;;;;5015624;28;20430;-73
2021/04/12 02:19:27;;;;;;;9.83;5.33;;;4.20;99.90;;;;;;4997469;28;20893;-73
2021/04/12 02:22:14;;;;;;;5.10;4.60;;;4.20;99.90;;;;;;4997244;28;20411;-73
2021/04/12 02:25:18;;;;;;;7.40;5.27;;;4.20;99.90;;;;;;4997216;28;20494;-73
2021/04/12 02:28:25;;;;;;;9.67;5.57;;;4.20;99.90;;;;;;5018611;28;20468;-73
2021/04/12 02:31:21;;;;;;;7.70;5.13;;;4.20;99.90;;;;;;5017036;28;20884;-73
2021/04/12 02:33:56;;;;;;;5.87;4.83;;;4.10;99.90;;;;;;5016647;28;20403;-73
2021/04/12 02:36:28;;;;;;;8.97;5.10;;;4.20;99.90;;;;;;5016944;28;20399;-73
2021/04/12 02:39:01;;;;;;;9.33;5.40;;;4.20;99.90;;;;;;5016413;28;20427;-73
2021/04/12 02:41:50;;;;;;;7.43;5.50;;;4.20;99.90;;;;;;5017204;28;20692;-73
2021/04/12 02:44:53;;;;;;;6.77;5.60;;;4.20;99.90;;;;;;5016622;28;20403;-73
2021/04/12 02:47:32;;;;;;;8.77;5.67;;;4.30;99.90;;;;;;5016036;28;20498;-73
2021/04/12 02:50:20;;;;;;;7.17;5.83;;;4.20;99.90;;;;;;5015940;28;20424;-73
2021/04/12 02:53:05;;;;;;;8.17;6.20;;;4.20;99.90;;;;;;5016253;28;20407;-73
2021/04/12 02:56:04;;;;;;;9.10;5.87;;;4.10;99.90;;;;;;5016235;28;20450;-73
2021/04/12 02:58:56;;;;;;;10.70;6.90;;;4.10;99.90;;;;;;5015666;28;20496;-72
2021/04/12 03:01:21;;;;;;;7.90;5.60;;;4.10;99.90;;;;;;5032934;28;20509;-72
2021/04/12 03:04:12;;;;;;;7.87;5.97;;;4.10;99.90;;;;;;5033426;28;20815;-73
2021/04/12 03:07:15;;;;;;;5.80;5.30;;;4.20;99.90;;;;;;5033011;28;20215;-72
2021/04/12 03:10:03;;;;;;;6.60;5.77;;;4.20;99.90;;;;;;5032923;28;20879;-72
2021/04/12 03:12:44;;;;;;;6.13;5.53;;;4.00;99.90;;;;;;5033054;28;20425;-72
2021/04/12 03:15:32;;;;;;;7.67;6.20;;;4.00;99.90;;;;;;5033345;28;20407;-72
2021/04/12 03:18:32;;;;;;;7.40;6.00;;;3.90;99.90;;;;;;5033288;28;20917;-73
2021/04/12 03:21:34;;;;;;;7.47;5.67;;;4.00;99.90;;;;;;5033000;28;20426;-73
2021/04/12 03:24:10;;;;;;;7.10;5.70;;;3.90;99.90;;;;;;5033422;28;20416;-74
2021/04/12 03:27:13;;;;;;;10.43;6.63;;;3.90;99.90;;;;;;5032043;28;20428;-74
2021/04/12 03:29:51;;;;;;;8.87;6.90;;;3.90;99.90;;;;;;5033031;28;20548;-74
2021/04/12 03:32:47;;;;;;;9.30;7.27;;;3.90;99.90;;;;;;5032518;28;20436;-73
2021/04/12 03:35:21;;;;;;;7.80;6.17;;;3.90;99.90;;;;;;5033233;28;20556;-73
2021/04/12 03:38:14;;;;;;;9.60;6.20;;;4.00;99.90;;;;;;5027273;28;20951;-73
2021/04/12 03:41:01;;;;;;;9.70;7.17;;;4.00;99.90;;;;;;5015383;28;20402;-75
2021/04/12 03:43:34;;;;;;;10.27;7.37;;;3.90;99.90;;;;;;5014010;28;20469;-74
2021/04/12 03:46:17;;;;;;;8.30;6.83;;;3.80;99.90;;;;;;5015121;28;20895;-74
2021/04/12 03:49:21;;;;;;;8.90;6.80;;;3.90;99.90;;;;;;5015141;28;20536;-74
2021/04/12 03:52:08;;;;;;;10.27;7.60;;;3.90;99.90;;;;;;5016445;28;20477;-74
2021/04/12 03:54:36;;;;;;;13.77;10.10;;;3.80;99.90;;;;;;5015764;28;20423;-73
2021/04/12 03:57:25;;;;;;;10.07;7.57;;;3.80;99.90;;;;;;5015802;28;20553;-73
2021/04/12 04:00:09;;;;;;;12.47;7.90;;;3.90;99.90;;;;;;5015260;28;20793;-74
2021/04/12 04:03:12;;;;;;;8.30;7.33;;;3.90;99.90;;;;;;5014623;28;20417;-74
2021/04/12 04:06:11;;;;;;;12.60;8.63;;;3.80;99.90;;;;;;4996491;28;20410;-74
2021/04/12 04:08:56;;;;;;;9.10;7.67;;;3.90;99.90;;;;;;4996446;28;20447;-74
2021/04/12 04:11:22;;;;;;;11.40;7.73;;;3.90;99.90;;;;;;4995202;28;20818;-73
2021/04/12 04:14:06;;;;;;;9.27;8.30;;;3.80;99.90;;;;;;4999362;28;20453;-73
2021/04/12 04:16:43;;;;;;;10.80;8.87;;;3.80;99.90;;;;;;5015677;28;20321;-73
2021/04/12 04:19:35;;;;;;;13.57;9.40;;;3.70;99.90;;;;;;5016158;28;20762;-72
2021/04/12 04:22:26;;;;;;;10.63;8.80;;;3.70;99.90;;;;;;5015374;28;20449;-73
2021/04/12 04:25:03;;;;;;;8.93;8.03;;;3.70;99.90;;;;;;5014994;28;20746;-73
2021/04/12 04:27:28;;;;;;;10.30;9.13;;;3.70;99.90;;;;;;5014437;28;20454;-73
2021/04/12 04:30:40;;;;;;;15.83;9.90;;;3.60;99.90;;;;;;5014695;28;20417;-72
2021/04/12 04:33:27;;;;;;;12.60;9.80;;;3.50;99.90;;;;;;5005224;28;20350;-72
2021/04/12 04:36:28;;;;;;;11.33;9.60;;;3.50;99.90;;;;;;5000013;28;20453;-72
2021/04/12 04:39:26;;;;;;;12.67;10.00;;;3.50;99.90;;;;;;5002777;28;20437;-73
2021/04/12 04:42:07;;;;;;;11.00;9.77;;;3.60;99.90;;;;;;4995161;28;20772;-73
2021/04/12 04:45:08;;;;;;;11.53;9.27;;;3.60;99.90;;;;;;5004790;28;20434;-72
2021/04/12 04:48:11;;;;;;;10.80;9.50;;;3.40;99.90;;;;;;5005459;28;20470;-72
2021/04/12 04:50:48;;;;;;;9.90;8.90;;;3.40;99.90;;;;;;4999737;28;20430;-73
2021/04/12 04:53:33;;;;;;;9.80;8.80;;;3.50;99.90;;;;;;5006977;28;20807;-73
2021/04/12 04:56:11;;;;;;;10.07;9.03;;;3.50;99.90;;;;;;5013866;28;20421;-73
2021/04/12 04:59:06;;;;;;;11.27;8.67;;;3.50;99.90;;;;;;5006135;28;20462;-74
2021/04/12 05:02:20;;;;;;;10.90;8.97;;;3.50;99.90;;;;;;4997921;28;20941;-73
2021/04/12 05:05:01;;;;;;;12.90;8.50;;;3.40;99.90;;;;;;4998722;28;20450;-73
2021/04/12 05:07:49;;;;;;;11.33;10.23;;;3.50;99.90;;;;;;5000777;28;20788;-73
2021/04/12 05:10:23;;;;;;;10.03;9.00;;;3.50;99.90;;;;;;5002704;28;20950;-74
2021/04/12 05:13:14;;;;;;;11.90;9.47;;;3.40;99.90;;;;;;4994019;28;20411;-74
2021/04/12 05:16:04;;;;;;;11.03;9.20;;;3.50;99.90;;;;;;5003032;28;20495;-75
2021/04/12 05:18:48;;;;;;;11.20;9.87;;;3.60;99.90;;;;;;5003736;28;20457;-74
2021/04/12 05:21:32;;;;;;;10.43;9.43;;;3.50;99.90;;;;;;5014269;28;20398;-74
2021/04/12 05:24:38;;;;;;;11.20;9.60;;;3.50;99.90;;;;;;5013548;28;20461;-74
2021/04/12 05:27:37;;;;;;;11.50;9.27;;;3.60;99.90;;;;;;5013968;28;20520;-74
2021/04/12 05:30:28;;;;;;;13.20;10.40;;;3.60;99.90;;;;;;5007910;28;20438;-73
2021/04/12 05:33:24;;;;;;;10.60;8.93;;;3.60;99.90;;;;;;5004108;28;20422;-73
2021/04/12 05:36:26;;;;;;;10.50;9.50;;;3.60;99.90;;;;;;5010195;28;20484;-74
2021/04/12 05:39:19;;;;;;;14.23;9.03;;;3.60;99.90;;;;;;5006233;28;20458;-74
2021/04/12 05:42:07;;;;;;;9.73;8.80;;;3.60;99.90;;;;;;5002784;28;20411;-73
2021/04/12 05:44:37;;;;;;;10.80;9.00;;;3.60;99.90;;;;;;5009941;28;20430;-73
2021/04/12 05:47:18;;;;;;;14.20;9.90;;;3.50;99.90;;;;;;5005289;28;20482;-73
2021/04/12 05:50:12;;;;;;;13.73;9.67;;;3.60;99.90;;;;;;4994328;28;20440;-74
2021/04/12 05:52:49;;;;;;;10.80;9.53;;;3.50;99.90;;;;;;5011441;28;20443;-73
2021/04/12 05:55:52;;;;;;;11.37;9.70;;;3.50;99.90;;;;;;4999192;28;20915;-72
2021/04/12 05:58:46;;;;;;;10.73;8.80;;;3.50;99.90;;;;;;5017499;28;20461;-73
2021/04/12 06:01:49;;;;;;;13.30;9.97;;;3.50;99.90;;;;;;5017323;28;20426;-73
2021/04/12 06:04:32;;;;;;;19.80;10.90;;;3.60;99.90;;;;;;5016735;28;20977;-73
2021/04/12 06:07:16;;;;;;;11.60;10.03;;;3.60;99.90;;;;;;5015389;28;20898;-74
2021/04/12 06:10:28;;;;;;;12.07;10.50;;;3.60;99.90;;;;;;5015437;28;20863;-74
2021/04/12 06:13:12;;;;;;;10.70;9.70;;;3.70;99.90;;;;;;5015152;28;20434;-73
2021/04/12 06:15:53;;;;;;;11.07;9.87;;;3.90;99.90;;;;;;5016757;28;20449;-74
2021/04/12 06:18:30;;;;;;;14.83;10.60;;;4.00;99.90;;;;;;5016376;28;20468;-73
2021/04/12 06:21:25;;;;;;;14.53;10.67;;;4.20;99.90;;;;;;5017086;28;20422;-73
2021/04/12 06:23:58;;;;;;;14.03;10.00;;;4.30;99.90;;;;;;5016435;28;20422;-73
2021/04/12 06:26:38;;;;;;;14.77;10.13;;;4.40;99.90;;;;;;5016948;28;20433;-73
2021/04/12 06:29:22;;;;;;;14.73;10.63;;;4.60;99.90;;;;;;5016185;28;20422;-74
2021/04/12 06:32:25;;;;;;;14.40;11.00;;;4.70;99.90;;;;;;5016542;28;20498;-73
2021/04/12 06:35:19;;;;;;;15.30;9.87;;;4.90;99.90;;;;;;5016810;28;20399;-73
2021/04/12 06:37:55;;;;;;;11.23;10.10;;;4.80;99.90;;;;;;5022574;28;20973;-73
2021/04/12 06:40:44;;;;;;;11.97;9.97;;;5.00;99.90;;;;;;5015914;28;20972;-73
2021/04/12 06:43:35;;;;;;;11.57;9.30;;;5.10;99.90;;;;;;5016490;28;20447;-73
2021/04/12 06:46:01;;;;;;;12.20;10.10;;;5.10;99.90;;;;;;5018431;28;20471;-72
2021/04/12 06:48:40;;;;;;;12.33;9.13;;;5.10;99.90;;;;;;5016383;28;20462;-73
2021/04/12 06:51:21;;;;;;;14.93;10.63;;;5.10;99.90;;;;;;5016725;28;20176;-73
2021/04/12 06:54:20;;;;;;;13.00;9.63;;;5.20;99.90;;;;;;5015136;28;20442;-73
2021/04/12 06:57:30;;;;;;;12.03;10.70;;;5.40;99.90;;;;;;5016297;28;20973;-73
2021/04/12 07:00:38;;;;;;;13.43;10.20;;;5.20;99.90;;;;;;5016160;28;20415;-73
2021/04/12 07:03:38;;;;;;;13.53;11.70;;;5.10;99.90;;;;;;5015283;28;20410;-73
2021/04/12 07:06:31;;;;;;;12.33;10.67;;;5.20;99.90;;;;;;5015715;28;20425;-73
2021/04/12 07:09:07;;;;;;;11.50;10.40;;;5.30;99.90;;;;;;5016301;28;20908;-74
2021/04/12 07:12:01;;;;;;;11.43;10.33;;;5.30;99.90;;;;;;5015797;28;20415;-74
2021/04/12 07:14:49;;;;;;;13.13;10.50;;;5.40;99.90;;;;;;5016019;28;20411;-74
2021/04/12 07:17:42;;;;;;;13.80;11.00;;;5.40;99.90;;;;;;5016327;28;20442;-74
2021/04/12 07:20:20;;;;;;;13.90;10.30;;;5.10;99.90;;;;;;5015886;28;20408;-74
2021/04/12 07:23:20;;;;;;;13.77;10.90;;;5.10;99.90;;;;;;4995896;28;20404;-74
2021/04/12 07:26:23;;;;;;;11.83;10.53;;;5.10;99.90;;;;;;4995177;28;20411;-74
2021/04/12 07:29:13;;;;;;;12.60;10.37;;;5.10;99.90;;;;;;4995963;28;20530;-74
2021/04/12 07:32:23;;;;;;;14.30;11.83;;;5.00;99.90;;;;;;5004037;28;20419;-74
2021/04/12 07:34:48;;;;;;;13.10;11.80;;;5.10;99.90;;;;;;5014448;28;20426;-73
2021/04/12 07:37:32;;;;;;;15.50;12.53;;;5.20;99.90;;;;;;5015654;28;20458;-73
2021/04/12 07:40:35;;;;;;;17.30;13.13;;;5.30;99.90;;;;;;5015263;28;20512;-74
2021/04/12 07:43:19;;;;;;;13.80;12.40;;;5.50;99.90;;;;;;5015024;28;20447;-73
2021/04/12 07:48:51;;;;;;;15.53;13.47;;;5.70;99.90;;;;;;5013973;28;20470;-74
2021/04/12 07:51:54;;;;;;;24.23;14.03;;;5.70;99.90;;;;;;5015931;28;20424;-74
2021/04/12 07:54:54;;;;;;;20.60;13.50;;;5.80;99.90;;;;;;5014111;28;20426;-74
2021/04/12 07:57:56;;;;;;;14.97;13.07;;;5.90;99.90;;;;;;5014820;28;20831;-74
2021/04/12 08:00:55;;;;;;;18.03;13.20;;;5.90;99.90;;;;;;5016749;28;20418;-74
2021/04/12 08:03:42;;;;;;;23.23;15.80;;;5.90;99.90;;;;;;5015681;28;20418;-74
2021/04/12 08:07:18;;;;;;;16.20;14.50;;;5.80;99.90;;;;;;5014892;28;20918;-74
2021/04/12 08:10:17;;;;;;;23.20;16.13;;;5.90;99.90;;;;;;5032506;28;20421;-73
2021/04/12 08:13:34;;;;;;;24.00;18.17;;;5.80;99.90;;;;;;5032742;28;20440;-73
2021/04/12 08:16:32;;;;;;;19.87;16.57;;;5.10;99.90;;;;;;5008157;28;20520;-73
2021/04/12 08:19:18;;;;;;;27.17;18.33;;;5.00;99.90;;;;;;4996080;28;20404;-74
2021/04/12 08:22:09;;;;;;;22.17;15.80;;;5.20;99.90;;;;;;4996087;28;20914;-74
2021/04/12 08:25:02;;;;;;;18.17;15.83;;;5.20;99.90;;;;;;4999301;28;20424;-73
2021/04/12 08:28:05;;;;;;;17.93;15.97;;;5.40;99.90;;;;;;5012698;28;20468;-73
2021/04/12 08:30:46;;;;;;;17.20;14.40;;;5.70;99.90;;;;;;5012410;28;20418;-74
2021/04/12 08:33:49;;;;;;;13.60;11.83;;;5.90;99.90;;;;;;5012774;28;20463;-74
2021/04/12 08:36:56;;;;;;;13.43;11.20;;;6.00;99.90;;;;;;5005715;28;20902;-74
2021/04/12 08:39:57;;;;;;;12.50;11.23;;;6.00;99.90;;;;;;4992279;28;20512;-75
2021/04/12 08:42:34;;;;;;;13.67;10.70;;;6.00;99.90;;;;;;4993899;28;20414;-74
2021/04/12 08:45:08;;;;;;;11.07;9.83;;;6.10;99.90;;;;;;4993608;28;20481;-74
2021/04/12 08:48:01;;;;;;;13.03;11.60;;;6.30;99.90;;;;;;5010602;28;20543;-73
2021/04/12 08:51:01;;;;;;;14.33;10.67;;;6.50;99.90;;;;;;5020650;28;20425;-74
2021/04/12 08:54:04;;;;;;;11.20;10.10;;;6.70;99.90;;;;;;5032385;28;20398;-74
2021/04/12 08:57:16;;;;;;;12.30;10.20;;;6.80;99.90;;;;;;5029497;28;20465;-74
2021/04/12 08:59:41;;;;;;;10.97;9.87;;;6.80;99.90;;;;;;5015236;28;20453;-73
2021/04/12 09:02:28;;;;;;;12.07;10.97;;;6.90;99.90;;;;;;5031940;28;20958;-74
2021/04/12 09:05:19;;;;;;;11.73;10.60;;;7.10;99.90;;;;;;5031906;28;20562;-74
2021/04/12 09:07:59;;;;;;;10.27;8.70;;;7.30;99.90;;;;;;5033608;28;20453;-74
2021/04/12 09:10:45;;;;;;;10.20;9.03;;;7.40;99.90;;;;;;5035629;28;20414;-75
2021/04/12 09:13:47;;;;;;;8.53;7.83;;;7.50;99.90;;;;;;5042887;28;20417;-75
2021/04/12 09:16:16;;;;;;;8.23;6.60;;;7.60;99.90;;;;;;5032215;28;20991;-74
2021/04/12 09:19:19;;;;;;;7.53;6.83;;;7.50;99.90;;;;;;5032913;28;20406;-76
2021/04/12 09:22:09;;;;;;;7.50;6.83;;;7.20;99.90;;;;;;5016769;28;20421;-74
2021/04/12 09:24:55;;;;;;;9.47;6.10;;;6.90;99.90;;;;;;5013905;28;20438;-74
2021/04/12 09:27:38;;;;;;;7.47;6.80;;;6.70;99.90;;;;;;5037138;28;20467;-74
2021/04/12 09:30:22;;;;;;;6.83;6.23;;;6.70;99.90;;;;;;5038599;28;20795;-74
2021/04/12 09:33:05;;;;;;;7.87;7.10;;;6.70;99.90;;;;;;5037905;28;20848;-75
2021/04/12 09:35:59;;;;;;;8.93;7.47;;;6.70;99.90;;;;;;5025664;28;20438;-75
2021/04/12 09:38:52;;;;;;;12.70;8.27;;;6.70;99.90;;;;;;5017575;28;20513;-75
2021/04/12 09:41:55;;;;;;;7.73;7.10;;;6.60;99.90;;;;;;5017331;28;20407;-74
2021/04/12 09:44:42;;;;;;;8.70;7.80;;;6.60;99.90;;;;;;5016743;28;20479;-73
2021/04/12 09:47:37;;;;;;;9.73;8.80;;;6.70;99.90;;;;;;4998000;28;20554;-72
2021/04/12 09:50:39;;;;;;;9.00;8.10;;;6.70;99.90;;;;;;5013224;28;20437;-73
2021/04/12 09:53:22;;;;;;;8.53;7.83;;;6.90;99.90;;;;;;5016800;28;20936;-74
2021/04/12 09:56:26;;;;;;;8.73;7.93;;;7.10;99.90;;;;;;5016594;28;20424;-77
2021/04/12 09:59:06;;;;;;;7.87;6.83;;;7.30;99.90;;;;;;5015985;28;20421;-74
2021/04/12 10:01:54;;;;;;;8.80;8.10;;;7.40;99.90;;;;;;5015220;28;20433;-74
2021/04/12 10:04:42;;;;;;;8.47;7.67;;;7.40;99.90;;;;;;5015299;28;20478;-76
2021/04/12 10:07:10;;;;;;;9.53;8.67;;;7.30;99.90;;;;;;5016237;28;20461;-75
2021/04/12 10:09:51;;;;;;;9.93;9.00;;;7.20;99.90;;;;;;5016200;28;20501;-73
2021/04/12 10:12:44;;;;;;;9.83;8.80;;;7.10;99.90;;;;;;5016020;28;20458;-74
2021/04/12 10:15:28;;;;;;;8.77;7.97;;;6.80;99.90;;;;;;5016027;28;20417;-75
2021/04/12 10:18:19;;;;;;;9.00;7.83;;;6.40;99.90;;;;;;5015916;28;20528;-73
2021/04/12 10:20:50;;;;;;;8.17;7.37;;;6.40;99.90;;;;;;5024006;28;20422;-73
2021/04/12 10:23:23;;;;;;;8.83;7.93;;;6.20;99.90;;;;;;5015796;28;20458;-74
2021/04/12 10:26:01;;;;;;;7.73;5.87;;;6.30;99.90;;;;;;5016130;28;20746;-74
2021/04/12 10:28:48;;;;;;;6.90;5.67;;;6.10;99.90;;;;;;5016024;28;20457;-73
2021/04/12 10:31:34;;;;;;;6.17;5.13;;;6.00;99.90;;;;;;5015068;28;20410;-73
2021/04/12 10:34:15;;;;;;;5.13;4.63;;;6.20;99.90;;;;;;5015516;28;20946;-74
2021/04/12 10:37:30;;;;;;;10.00;5.20;;;6.40;99.90;;;;;;4991627;28;692676;-74
2021/04/12 10:40:09;;;;;;;6.13;5.53;;;6.80;99.90;;;;;;5004271;28;20906;-74
2021/04/12 10:42:34;;;;;;;7.90;5.93;;;7.10;99.90;;;;;;5015383;28;20419;-74
2021/04/12 10:45:23;;;;;;;6.03;5.43;;;7.40;99.90;;;;;;5017656;28;20411;-74
2021/04/12 10:48:09;;;;;;;7.10;5.27;;;7.20;99.90;;;;;;5016287;28;20192;-74
2021/04/12 10:50:48;;;;;;;6.40;5.80;;;7.30;99.90;;;;;;5016430;28;20433;-73
2021/04/12 10:53:35;;;;;;;5.47;4.93;;;7.40;99.90;;;;;;5016656;28;20418;-74
2021/04/12 10:56:03;;;;;;;5.90;5.30;;;7.30;99.90;;;;;;5015660;28;20418;-74
2021/04/12 10:59:10;;;;;;;5.67;5.17;;;7.30;99.90;;;;;;5016849;28;20419;-73
2021/04/12 11:01:56;;;;;;;5.70;5.30;;;7.20;99.90;;;;;;5015499;28;20461;-73
2021/04/12 11:04:44;;;;;;;5.63;5.07;;;7.30;99.90;;;;;;5016179;28;20418;-73
2021/04/12 11:07:13;;;;;;;7.50;5.23;;;7.40;99.90;;;;;;5016212;28;20523;-73
2021/04/12 11:10:03;;;;;;;5.33;4.93;;;7.50;99.90;;;;;;5016488;28;20778;-73
2021/04/12 11:12:40;;;;;;;4.87;4.47;;;7.50;99.90;;;;;;4996260;28;20435;-74
2021/04/12 11:15:31;;;;;;;8.03;5.60;;;7.30;99.90;;;;;;4997098;28;20399;-73
2021/04/12 11:18:14;;;;;;;5.00;4.60;;;7.30;99.90;;;;;;4996717;28;20481;-74
2021/04/12 11:20:59;;;;;;;4.83;4.33;;;7.60;99.90;;;;;;5013025;28;20462;-74
2021/04/12 11:23:41;;;;;;;4.20;3.90;;;7.80;98.60;;;;;;5015366;28;20422;-73
2021/04/12 11:26:28;;;;;;;5.20;4.70;;;8.00;98.60;;;;;;5022882;28;20402;-75
2021/04/12 11:29:01;;;;;;;7.63;6.93;;;7.80;99.20;;;;;;5037804;28;20443;-74
2021/04/12 11:31:27;;;;;;;11.03;9.93;;;7.20;99.90;;;;;;5034739;28;20478;-74
2021/04/12 11:34:15;;;;;;;11.93;10.73;;;6.80;99.90;;;;;;5017411;28;20426;-74
2021/04/12 11:36:54;;;;;;;11.57;10.37;;;6.40;99.90;;;;;;5016255;28;20340;-74
2021/04/12 11:39:28;;;;;;;11.00;9.90;;;6.30;99.90;;;;;;5015068;28;20503;-72
2021/04/12 11:42:18;;;;;;;9.27;8.43;;;6.00;99.90;;;;;;5010107;28;20411;-73
2021/04/12 11:44:48;;;;;;;9.30;8.30;;;5.90;99.90;;;;;;5016211;28;20445;-73
2021/04/12 11:47:20;;;;;;;7.00;6.50;;;5.70;99.90;;;;;;5014306;28;20466;-73
2021/04/12 11:50:00;;;;;;;8.90;8.00;;;5.20;99.90;;;;;;5015112;28;20444;-74
2021/04/12 11:52:48;;;;;;;7.50;6.80;;;4.80;99.90;;;;;;5015502;28;20410;-74
2021/04/12 11:55:36;;;;;;;8.10;5.53;;;4.70;99.90;;;;;;5015014;28;20423;-73
2021/04/12 11:58:16;;;;;;;6.30;5.80;;;4.50;99.90;;;;;;5016027;28;20427;-73
2021/04/12 12:00:56;;;;;;;5.37;4.90;;;4.60;99.90;;;;;;5016049;28;20406;-74
2021/04/12 12:03:37;;;;;;;4.70;4.30;;;4.90;99.90;;;;;;5014701;28;20501;-74
2021/04/12 12:06:16;;;;;;;5.53;3.73;;;5.00;99.90;;;;;;5014032;28;20441;-73
2021/04/12 12:09:01;;;;;;;4.33;3.83;;;5.10;99.90;;;;;;5011908;28;20458;-75
2021/04/12 12:11:39;;;;;;;3.70;3.40;;;5.50;99.90;;;;;;5007898;28;20419;-74
2021/04/12 12:14:14;;;;;;;4.27;3.87;;;5.80;99.90;;;;;;5003151;28;20459;-74
2021/04/12 12:16:42;;;;;;;4.43;3.87;;;6.00;99.90;;;;;;5008844;28;20457;-74
2021/04/12 12:19:30;;;;;;;3.10;2.90;;;6.20;99.90;;;;;;5015478;28;20414;-74
2021/04/12 12:22:23;;;;;;;5.23;3.40;;;6.20;99.90;;;;;;5011036;28;20530;-73
2021/04/12 12:25:07;;;;;;;3.60;3.30;;;6.20;99.90;;;;;;5005338;28;20418;-75
2021/04/12 12:27:39;;;;;;;3.27;3.07;;;6.30;99.90;;;;;;5011477;28;20470;-73
2021/04/12 12:30:27;;;;;;;3.43;2.63;;;6.10;99.90;;;;;;5006112;28;20430;-74
2021/04/12 12:33:08;;;;;;;2.93;2.73;;;6.10;99.90;;;;;;5024208;28;20414;-74
2021/04/12 12:35:58;;;;;;;3.70;3.13;;;6.20;99.90;;;;;;5011170;28;20444;-73
2021/04/12 12:38:43;;;;;;;2.60;2.40;;;6.20;99.90;;;;;;5011618;28;20533;-74
2021/04/12 12:41:18;;;;;;;4.90;3.33;;;6.10;99.90;;;;;;5011882;28;20434;-73
2021/04/12 12:43:46;;;;;;;4.03;3.33;;;6.30;99.40;;;;;;5011826;28;20433;-75
2021/04/12 12:46:15;;;;;;;4.40;3.70;;;6.30;99.00;;;;;;5011370;28;20816;-73
2021/04/12 12:49:01;;;;;;;5.50;2.80;;;6.20;97.90;;;;;;5011575;28;20460;-74
2021/04/12 12:51:32;;;;;;;3.43;3.00;;;6.10;99.00;;;;;;5007838;28;20423;-73
2021/04/12 12:54:03;;;;;;;5.60;3.30;;;6.20;98.90;;;;;;5010998;28;20501;-74
2021/04/12 12:56:30;;;;;;;2.60;2.40;;;6.30;99.10;;;;;;5013704;28;20426;-74
2021/04/12 12:59:06;;;;;;;4.13;3.50;;;6.40;98.20;;;;;;5012500;28;20411;-75
2021/04/12 13:01:39;;;;;;;3.47;3.17;;;6.40;97.40;;;;;;5014258;28;20395;-75
2021/04/12 13:04:20;;;;;;;3.80;3.50;;;6.40;97.40;;;;;;5012512;28;20399;-75
2021/04/12 13:06:50;;;;;;;3.83;3.53;;;6.50;97.80;;;;;;5011644;28;20588;-72
2021/04/12 13:09:32;;;;;;;5.00;3.47;;;6.60;98.50;;;;;;5014461;28;20432;-72
2021/04/12 13:12:01;;;;;;;4.63;4.20;;;6.70;97.40;;;;;;5013913;28;20406;-74
2021/04/12 13:15:09;;;;;;;4.77;3.50;;;6.80;98.00;;;;;;5015048;28;20465;-75
2021/04/12 13:17:38;;;;;;;4.20;3.90;;;7.20;98.30;;;;;;5022944;28;20434;-74
2021/04/12 13:20:04;;;;;;;3.90;3.60;;;7.30;97.10;;;;;;5013126;28;20418;-73
2021/04/12 13:22:34;;;;;;;4.20;3.80;;;7.60;97.30;;;;;;5014349;28;20864;-73
2021/04/12 13:25:18;;;;;;;5.20;4.50;;;7.70;96.60;;;;;;5012904;28;20203;-73
2021/04/12 13:27:55;;;;;;;3.87;3.20;;;7.80;96.80;;;;;;5013432;28;20453;-73
2021/04/12 13:30:25;;;;;;;4.20;3.57;;;7.60;99.00;;;;;;5014773;28;20406;-72
2021/04/12 13:33:00;;;;;;;4.40;4.10;;;7.50;99.90;;;;;;5013423;28;20427;-72
2021/04/12 13:35:32;;;;;;;6.00;4.50;;;7.50;99.90;;;;;;5014754;28;20421;-72
2021/04/12 13:38:05;;;;;;;4.90;4.50;;;7.40;99.90;;;;;;5000555;28;20494;-73
2021/04/12 13:40:49;;;;;;;3.63;3.33;;;7.40;99.90;;;;;;5003776;28;20775;-72
2021/04/12 13:43:16;;;;;;;3.87;3.50;;;7.10;99.90;;;;;;5009497;28;20961;-73
2021/04/12 13:45:46;;;;;;;4.07;3.67;;;6.90;99.90;;;;;;5010706;28;20971;-73
2021/04/12 13:48:23;;;;;;;4.10;3.40;;;6.90;99.90;;;;;;5011702;28;20466;-73
2021/04/12 13:51:06;;;;;;;3.70;3.40;;;6.80;99.90;;;;;;5003245;28;20951;-74
2021/04/12 13:53:48;;;;;;;3.40;3.10;;;6.60;99.90;;;;;;5009114;28;20449;-76
2021/04/12 13:56:47;;;;;;;5.10;3.60;;;6.60;99.90;;;;;;5008004;28;20521;-73
2021/04/12 13:59:17;;;;;;;4.33;3.90;;;6.40;99.90;;;;;;5018763;28;20432;-72
2021/04/12 14:02:05;;;;;;;4.20;3.90;;;6.20;99.90;;;;;;5010657;28;20410;-72
2021/04/12 14:04:43;;;;;;;4.50;4.10;;;5.70;99.90;;;;;;5008875;28;20430;-73
2021/04/12 14:07:11;;;;;;;5.03;3.67;;;5.50;99.90;;;;;;5009756;28;20465;-74
2021/04/12 14:10:10;;;;;;;4.17;3.87;;;5.70;99.90;;;;;;5016902;28;20543;-72
2021/04/12 14:12:41;;;;;;;3.93;3.63;;;6.00;99.90;;;;;;4990573;28;20493;-72
2021/04/12 14:15:22;;;;;;;3.93;3.57;;;6.20;99.90;;;;;;4991473;28;20541;-73
2021/04/12 14:18:00;;;;;;;3.67;3.00;;;6.70;99.90;;;;;;4960165;28;20458;-73
2021/04/12 14:20:34;;;;;;;3.00;2.80;;;7.10;99.90;;;;;;4970949;28;20504;-73
2021/04/12 14:23:13;;;;;;;3.80;3.50;;;7.40;99.90;;;;;;4972185;28;20431;-73
2021/04/12 14:25:42;;;;;;;3.53;3.23;;;7.50;99.90;;;;;;4972156;28;20518;-73
2021/04/12 14:28:08;;;;;;;3.63;3.33;;;7.80;99.90;;;;;;4971953;28;20472;-72
2021/04/12 14:30:41;;;;;;;3.30;3.00;;;8.10;99.90;;;;;;4971918;28;20471;-73